Time;durP1;ratioP1;P1;durP2;ratioP2;P2;SDS_P1;SDS_P2;PMS_P1;PMS_P2;Temp;Humidity;BMP_temperature;BMP_pressure;BME280_temperature;BME280_humidity;BME280_pressure;Samples;Min_cycle;Max_cycle;Signal;HPM_P1;HPM_P2
2023/03/14 00:00:41;;;;;;;27.27;13.55;;;;;;;1.72;74.43;94881.19;5151425;27;20281;-78
2023/03/14 00:03:07;;;;;;;25.55;12.45;;;;;;;1.75;73.30;94858.50;5140999;27;20254;-77
2023/03/14 00:05:35;;;;;;;24.90;12.23;;;;;;;1.78;72.87;94864.09;5143165;27;20201;-77
2023/03/14 00:08:02;;;;;;;22.38;12.88;;;;;;;1.75;74.01;94855.84;5151289;27;20484;-77
2023/03/14 00:10:28;;;;;;;22.13;12.10;;;;;;;1.69;74.35;94854.22;5133749;27;20850;-77
2023/03/14 00:12:56;;;;;;;22.63;11.65;;;;;;;1.71;75.09;94852.09;5141542;27;20200;-78
2023/03/14 00:15:23;;;;;;;25.25;12.93;;;;;;;1.62;74.94;94853.69;5137733;27;20620;-77
2023/03/14 00:17:50;;;;;;;24.88;11.90;;;;;;;1.69;74.46;94851.56;5140321;27;20237;-77
2023/03/14 00:20:17;;;;;;;20.65;11.88;;;;;;;1.67;75.10;94840.34;5144410;27;20277;-77
2023/03/14 00:22:44;;;;;;;22.70;12.10;;;;;;;1.69;75.52;94832.88;5142197;27;20211;-77
2023/03/14 00:25:11;;;;;;;18.40;10.68;;;;;;;1.66;75.19;94836.06;5151005;27;20257;-77
2023/03/14 00:27:38;;;;;;;13.05;6.57;;;;;;;1.79;73.20;94827.50;5151396;27;20565;-78
2023/03/14 00:30:08;;;;;;;12.65;5.78;;;;;;;1.76;75.44;94817.41;5141742;27;20221;-78
2023/03/14 00:32:35;;;;;;;15.65;7.07;;;;;;;1.88;74.36;94815.25;5143179;27;20200;-78
2023/03/14 00:35:03;;;;;;;15.48;6.60;;;;;;;1.90;74.53;94817.66;5144906;27;20200;-78
2023/03/14 00:37:29;;;;;;;12.18;6.75;;;;;;;1.61;75.24;94814.72;5143089;27;20208;-79
2023/03/14 00:39:58;;;;;;;20.35;11.60;;;;;;;1.63;75.17;94817.94;5137305;27;20232;-79
2023/03/14 00:42:28;;;;;;;16.58;7.07;;;;;;;1.51;75.17;94809.34;5137926;27;20201;-76
2023/03/14 00:44:54;;;;;;;12.35;7.15;;;;;;;1.61;75.51;94804.03;5138568;27;20204;-79
2023/03/14 00:47:23;;;;;;;13.98;7.13;;;;;;;1.68;76.93;94807.22;5137441;27;20212;-77
2023/03/14 00:49:49;;;;;;;12.82;6.53;;;;;;;1.72;77.16;94805.63;5138210;27;20249;-77
2023/03/14 00:52:16;;;;;;;11.27;6.75;;;;;;;1.74;76.00;94806.97;5136324;27;20747;-77
2023/03/14 00:54:43;;;;;;;11.45;4.93;;;;;;;1.72;75.85;94805.63;5143166;27;20727;-77
2023/03/14 00:57:10;;;;;;;10.30;5.63;;;;;;;1.69;74.84;94806.16;5144564;27;20784;-77
2023/03/14 00:59:36;;;;;;;9.73;5.18;;;;;;;1.49;75.50;94803.50;5138368;27;20685;-77
2023/03/14 01:02:03;;;;;;;9.13;4.97;;;;;;;1.53;74.58;94802.69;5136939;27;20784;-77
2023/03/14 01:04:31;;;;;;;10.25;4.93;;;;;;;1.45;74.36;94794.44;5150949;27;20200;-77
2023/03/14 01:06:58;;;;;;;11.70;5.55;;;;;;;1.50;75.53;94792.56;5136926;27;20209;-78
2023/03/14 01:09:25;;;;;;;17.00;5.82;;;;;;;1.57;75.47;94789.63;5151593;27;20261;-78
2023/03/14 01:11:51;;;;;;;12.88;5.63;;;;;;;1.57;76.75;94789.63;5137335;27;20204;-77
2023/03/14 01:14:18;;;;;;;9.27;4.82;;;;;;;1.57;76.53;94794.97;5141604;27;20201;-78
2023/03/14 01:16:45;;;;;;;8.95;5.05;;;;;;;1.56;76.75;94791.47;5144053;27;20261;-78
2023/03/14 01:19:12;;;;;;;13.25;5.70;;;;;;;1.64;77.73;94784.81;5139040;27;20276;-78
2023/03/14 01:21:40;;;;;;;15.13;7.35;;;;;;;1.57;77.22;94785.09;5137070;27;20282;-77
2023/03/14 01:24:08;;;;;;;14.70;6.80;;;;;;;1.63;75.34;94780.56;5140360;27;20348;-78
2023/03/14 01:26:36;;;;;;;11.30;6.13;;;;;;;1.35;76.95;94769.34;5146793;27;20551;-77
2023/03/14 01:29:03;;;;;;;12.65;6.07;;;;;;;1.42;75.87;94774.41;5144683;27;20227;-77
2023/03/14 01:31:30;;;;;;;14.60;6.70;;;;;;;1.39;76.25;94770.38;5133627;27;20204;-78
2023/03/14 01:33:57;;;;;;;11.38;6.00;;;;;;;1.42;77.14;94772.53;5139661;27;20205;-78
2023/03/14 01:36:24;;;;;;;9.80;5.53;;;;;;;1.43;77.31;94768.81;5133689;27;20531;-78
2023/03/14 01:38:52;;;;;;;12.18;7.03;;;;;;;1.46;77.22;94766.66;5139748;27;20201;-77
2023/03/14 01:41:21;;;;;;;10.38;5.72;;;;;;;1.56;77.00;94764.78;5143338;27;20315;-77
2023/03/14 01:43:48;;;;;;;9.75;5.45;;;;;;;1.51;77.56;94761.31;5141005;27;20308;-78
2023/03/14 01:46:25;;;;;;;12.23;5.82;;;;;;;1.52;76.47;94765.59;5145068;27;20273;-77
2023/03/14 01:48:58;;;;;;;21.20;11.38;;;;;;;1.49;76.54;94764.28;5142537;27;20283;-77
2023/03/14 01:51:30;;;;;;;20.70;11.50;;;;;;;1.39;76.84;94759.72;5129075;27;20185;-77
2023/03/14 01:54:06;;;;;;;22.05;12.07;;;;;;;1.34;77.74;94751.72;5143240;27;20323;-78
2023/03/14 01:56:33;;;;;;;23.27;11.90;;;;;;;1.31;77.09;94757.59;5138823;27;20814;-78
2023/03/14 01:59:02;;;;;;;18.05;10.90;;;;;;;1.18;77.87;94749.31;5135831;27;20212;-77
2023/03/14 02:01:30;;;;;;;20.63;11.55;;;;;;;1.18;77.24;94755.44;5139523;27;20229;-77
2023/03/14 02:04:00;;;;;;;19.02;11.88;;;;;;;1.13;77.85;94751.97;5143225;27;20197;-78
2023/03/14 02:06:32;;;;;;;20.80;12.02;;;;;;;1.22;76.92;94756.53;5128757;27;20181;-78
2023/03/14 02:09:01;;;;;;;10.98;6.15;;;;;;;1.19;77.73;94749.06;5148838;27;20212;-77
2023/03/14 02:11:30;;;;;;;13.07;4.85;;;;;;;1.23;76.37;94757.34;5149973;27;20399;-78
2023/03/14 02:13:58;;;;;;;14.00;5.97;;;;;;;1.20;76.84;94750.66;5135896;27;20295;-78
2023/03/14 02:16:26;;;;;;;17.98;5.28;;;;;;;1.22;76.23;94740.53;5149816;27;20221;-77
2023/03/14 02:18:53;;;;;;;12.82;5.60;;;;;;;1.25;77.78;94741.84;5149923;27;20284;-78
2023/03/14 02:21:24;;;;;;;16.90;10.40;;;;;;;1.34;77.72;94741.06;5149252;27;20714;-77
2023/03/14 02:23:59;;;;;;;20.70;11.18;;;;;;;1.23;76.99;94742.09;5150041;27;20782;-78
2023/03/14 02:26:32;;;;;;;24.45;11.77;;;;;;;1.16;77.97;94738.91;5135553;27;20203;-78
2023/03/14 02:29:00;;;;;;;19.38;12.07;;;;;;;1.13;78.27;94738.63;5144100;27;20220;-77
2023/03/14 02:31:28;;;;;;;21.58;12.45;;;;;;;1.11;78.71;94741.56;5143074;27;20683;-78
2023/03/14 02:33:56;;;;;;;18.63;7.85;;;;;;;1.11;77.47;94728.22;5139481;27;20208;-77
2023/03/14 02:36:24;;;;;;;13.95;6.88;;;;;;;1.14;77.25;94741.03;5145823;27;20261;-77
2023/03/14 02:38:56;;;;;;;14.95;6.90;;;;;;;1.07;77.85;94737.84;5139431;27;20712;-79
2023/03/14 02:41:23;;;;;;;11.20;5.80;;;;;;;1.01;78.20;94746.88;5135264;27;20686;-79
2023/03/14 02:43:50;;;;;;;13.00;6.43;;;;;;;1.10;78.09;94755.16;5137982;27;20711;-78
2023/03/14 02:46:21;;;;;;;14.25;6.72;;;;;;;1.06;77.80;94757.56;5142570;27;20204;-78
2023/03/14 02:48:52;;;;;;;13.38;5.95;;;;;;;1.08;77.92;94752.78;5141204;27;20189;-77
2023/03/14 02:51:19;;;;;;;15.98;7.50;;;;;;;1.09;77.60;94753.59;5129368;27;20201;-77
2023/03/14 02:53:45;;;;;;;17.08;8.32;;;;;;;1.11;77.11;94752.22;5141500;27;20658;-78
2023/03/14 02:56:12;;;;;;;18.25;7.78;;;;;;;0.99;77.17;94751.69;5129564;27;20552;-78
2023/03/14 02:58:39;;;;;;;18.67;7.35;;;;;;;0.81;77.66;94754.88;5128750;28;20676;-78
2023/03/14 03:01:07;;;;;;;17.67;7.18;;;;;;;0.77;77.61;94756.44;5142008;27;20232;-78
2023/03/14 03:03:35;;;;;;;13.43;6.53;;;;;;;0.80;76.88;94750.59;5141493;27;20658;-77
2023/03/14 03:06:02;;;;;;;14.02;6.07;;;;;;;0.83;77.07;94745.50;5134960;27;20208;-77
2023/03/14 03:08:29;;;;;;;10.25;5.25;;;;;;;0.83;78.32;94752.72;5148352;27;20632;-77
2023/03/14 03:10:58;;;;;;;11.52;5.88;;;;;;;0.89;78.42;94754.34;5129069;28;20224;-78
2023/03/14 03:13:25;;;;;;;15.70;6.32;;;;;;;0.90;77.84;94750.59;5143413;27;20237;-77
2023/03/14 03:15:51;;;;;;;13.88;5.28;;;;;;;1.02;77.79;94751.97;5145094;27;20596;-78
2023/03/14 03:18:18;;;;;;;10.93;5.75;;;;;;;0.99;77.21;94749.00;5146354;27;20228;-78
2023/03/14 03:20:46;;;;;;;22.60;10.38;;;;;;;0.89;78.84;94747.13;5140724;27;20232;-77
2023/03/14 03:23:14;;;;;;;16.48;5.95;;;;;;;0.84;78.25;94747.13;5138712;27;20249;-78
2023/03/14 03:25:40;;;;;;;8.55;5.40;;;;;;;0.93;78.22;94744.75;5143595;27;20667;-78
2023/03/14 03:28:07;;;;;;;13.13;6.40;;;;;;;0.90;77.79;94739.94;5148865;27;20251;-78
2023/03/14 03:30:38;;;;;;;13.60;6.13;;;;;;;0.86;77.91;94758.31;5152744;27;20249;-79
2023/03/14 03:33:05;;;;;;;9.18;5.35;;;;;;;0.86;79.20;94749.53;5138454;27;20608;-78
2023/03/14 03:35:31;;;;;;;7.50;4.47;;;;;;;0.96;80.25;94754.88;5142004;27;20201;-78
2023/03/14 03:38:00;;;;;;;9.73;5.60;;;;;;;0.94;79.33;94741.03;5135912;27;20248;-78
2023/03/14 03:40:26;;;;;;;12.95;4.82;;;;;;;0.90;78.80;94746.06;5152745;27;20224;-79
2023/03/14 03:42:53;;;;;;;12.43;5.60;;;;;;;0.88;79.03;94747.41;5138676;27;20220;-78
2023/03/14 03:45:20;;;;;;;10.30;5.07;;;;;;;0.91;79.06;94746.88;5153032;27;20199;-78
2023/03/14 03:47:47;;;;;;;13.23;5.65;;;;;;;0.94;78.62;94749.03;5138691;27;20253;-79
2023/03/14 03:50:13;;;;;;;15.18;5.35;;;;;;;0.90;78.03;94746.06;5140769;27;20201;-78
2023/03/14 03:52:40;;;;;;;11.05;5.43;;;;;;;0.94;77.94;94757.03;5136654;27;20257;-78
2023/03/14 03:55:09;;;;;;;11.50;5.30;;;;;;;0.89;78.02;94759.66;5140272;27;20242;-79
2023/03/14 03:57:36;;;;;;;9.63;4.68;;;;;;;0.77;77.79;94761.78;5150654;27;20204;-78
2023/03/14 04:00:04;;;;;;;9.52;5.00;;;;;;;0.81;78.63;94762.88;5152216;27;20200;-78
2023/03/14 04:02:31;;;;;;;13.85;6.18;;;;;;;0.86;78.95;94765.53;5132596;27;20221;-78
2023/03/14 04:04:58;;;;;;;6.75;4.18;;;;;;;0.84;79.72;94765.78;5131184;27;20650;-78
2023/03/14 04:07:24;;;;;;;13.07;4.97;;;;;;;0.85;79.00;94753.25;5144965;27;20197;-78
2023/03/14 04:09:51;;;;;;;11.18;5.03;;;;;;;0.88;77.58;94758.06;5131093;27;20245;-78
2023/03/14 04:12:19;;;;;;;11.10;5.30;;;;;;;0.74;77.80;94756.97;5144677;27;20941;-78
2023/03/14 04:14:46;;;;;;;8.10;4.65;;;;;;;0.67;78.32;94752.69;5144716;27;20220;-78
2023/03/14 04:17:13;;;;;;;12.65;4.90;;;;;;;0.68;78.91;94751.59;5137849;27;20228;-78
2023/03/14 04:19:40;;;;;;;12.55;6.32;;;;;;;0.54;79.47;94745.19;5139123;27;20925;-79
2023/03/14 04:22:07;;;;;;;14.70;5.60;;;;;;;0.67;79.48;94742.03;5142611;27;20234;-78
2023/03/14 04:24:34;;;;;;;9.70;5.90;;;;;;;0.71;78.64;94742.28;5136379;27;20205;-78
2023/03/14 04:27:00;;;;;;;10.55;5.15;;;;;;;0.74;79.65;94738.31;5134488;27;20235;-78
2023/03/14 04:29:28;;;;;;;11.77;5.15;;;;;;;0.64;79.48;94728.44;5141951;27;20269;-77
2023/03/14 04:31:55;;;;;;;13.30;6.65;;;;;;;0.82;78.82;94727.16;5132192;27;20193;-79
2023/03/14 04:34:22;;;;;;;14.73;7.80;;;;;;;0.90;77.54;94735.41;5145156;27;20232;-77
2023/03/14 04:36:49;;;;;;;16.67;7.60;;;;;;;0.80;78.33;94727.41;5139934;27;21045;-77
2023/03/14 04:39:15;;;;;;;12.27;6.30;;;;;;;0.67;78.72;94723.38;5138889;27;20193;-77
2023/03/14 04:41:42;;;;;;;17.27;7.05;;;;;;;0.69;79.24;94723.88;5137787;27;20228;-77
2023/03/14 04:44:09;;;;;;;13.27;5.63;;;;;;;0.68;79.63;94719.63;5141535;27;20341;-76
2023/03/14 04:46:37;;;;;;;14.68;5.30;;;;;;;0.84;79.62;94715.13;5143601;27;20317;-77
2023/03/14 04:49:04;;;;;;;10.10;5.85;;;;;;;0.69;79.55;94707.91;5145026;27;20289;-77
2023/03/14 04:51:30;;;;;;;11.25;5.60;;;;;;;0.71;79.57;94720.97;5151450;27;20193;-78
2023/03/14 04:53:57;;;;;;;9.90;4.55;;;;;;;0.74;79.13;94704.44;5149765;27;20253;-78
2023/03/14 04:56:24;;;;;;;9.02;4.80;;;;;;;0.72;79.42;94706.56;5134600;27;20196;-78
2023/03/14 04:58:51;;;;;;;10.20;5.72;;;;;;;0.80;79.52;94702.59;5144676;27;20723;-78
2023/03/14 05:01:17;;;;;;;13.32;5.40;;;;;;;1.01;79.54;94702.34;5144077;27;20752;-77
2023/03/14 05:03:45;;;;;;;10.35;4.93;;;;;;;1.66;77.17;94695.38;5146109;27;20197;-78
2023/03/14 05:06:12;;;;;;;11.02;6.03;;;;;;;2.23;74.77;94698.69;5141081;27;20253;-77
2023/03/14 05:08:39;;;;;;;18.05;8.55;;;;;;;2.37;74.66;94689.78;5145772;27;20421;-77
2023/03/14 05:11:06;;;;;;;9.23;5.57;;;;;;;2.73;74.20;94695.75;5150826;27;20203;-79
2023/03/14 05:13:33;;;;;;;12.48;5.55;;;;;;;3.06;72.50;94698.75;5140831;27;20715;-75
2023/03/14 05:16:07;;;;;;;18.23;5.80;;;;;;;4.31;69.88;94686.31;5129612;27;20197;-78
2023/03/14 05:18:34;;;;;;;13.35;6.63;;;;;;;5.74;63.76;94678.53;5136320;27;20570;-77
2023/03/14 05:21:03;;;;;;;13.20;6.25;;;;;;;7.10;60.23;94666.97;5149567;27;20245;-78
2023/03/14 05:23:30;;;;;;;13.65;4.63;;;;;;;8.08;58.15;94666.13;5148601;27;20200;-77
2023/03/14 05:25:58;;;;;;;12.23;6.72;;;;;;;8.37;56.20;94655.66;5150598;27;20671;-77
2023/03/14 05:28:25;;;;;;;10.98;6.13;;;;;;;8.30;55.94;94663.38;5143457;27;20188;-78
2023/03/14 05:30:51;;;;;;;16.52;5.95;;;;;;;9.36;52.05;94659.47;5150878;27;20249;-78
2023/03/14 05:33:18;;;;;;;15.25;6.88;;;;;;;10.05;50.59;94663.97;5133027;27;20604;-78
2023/03/14 05:35:45;;;;;;;18.20;6.20;;;;;;;10.76;48.83;94650.63;5142031;27;21240;-79
2023/03/14 05:38:13;;;;;;;22.95;8.32;;;;;;;11.19;46.53;94648.44;5148748;27;20207;-78
2023/03/14 05:40:40;;;;;;;11.77;6.18;;;;;;;11.86;44.59;94647.38;5150256;27;20260;-78
2023/03/14 05:43:07;;;;;;;13.90;6.63;;;;;;;12.19;43.03;94647.34;5149595;27;20243;-77
2023/03/14 05:45:36;;;;;;;12.45;6.82;;;;;;;12.52;41.81;94644.56;5136277;27;20232;-78
2023/03/14 05:48:02;;;;;;;12.40;6.85;;;;;;;12.90;40.71;94637.97;5137772;27;20290;-77
2023/03/14 05:50:29;;;;;;;12.85;7.20;;;;;;;12.85;39.64;94647.13;5147068;27;20192;-77
2023/03/14 05:52:59;;;;;;;15.48;9.13;;;;;;;12.72;38.51;94648.28;5147889;27;20244;-79
2023/03/14 05:55:30;;;;;;;15.00;7.50;;;;;;;11.60;41.05;94646.81;5149923;27;20192;-81
2023/03/14 05:57:59;;;;;;;18.08;9.98;;;;;;;11.18;42.17;94652.25;5142143;27;20193;-79
2023/03/14 06:00:26;;;;;;;15.73;8.55;;;;;;;11.85;41.09;94650.44;5149817;27;20782;-80
2023/03/14 06:02:52;;;;;;;19.90;11.07;;;;;;;12.72;40.10;94648.28;5143826;27;20280;-79
2023/03/14 06:05:19;;;;;;;16.83;11.50;;;;;;;13.25;38.66;94643.72;5140374;27;20196;-79
2023/03/14 06:07:46;;;;;;;20.48;11.95;;;;;;;13.04;39.23;94641.13;5139789;27;20683;-79
2023/03/14 06:10:13;;;;;;;22.63;11.70;;;;;;;13.31;37.37;94640.41;5147937;27;20193;-79
2023/03/14 06:12:41;;;;;;;23.65;12.55;;;;;;;13.84;37.35;94641.13;5150057;27;20265;-78
2023/03/14 06:15:09;;;;;;;20.70;12.00;;;;;;;13.24;37.29;94629.34;5149838;27;20542;-78
2023/03/14 06:17:36;;;;;;;18.08;11.05;;;;;;;11.33;39.96;94643.53;5145386;27;20216;-78
2023/03/14 06:20:03;;;;;;;22.17;10.93;;;;;;;11.34;40.19;94645.09;5147743;27;20200;-79
2023/03/14 06:22:29;;;;;;;19.10;11.52;;;;;;;11.28;40.50;94641.00;5149571;27;20706;-79
2023/03/14 06:24:56;;;;;;;19.77;12.35;;;;;;;12.33;39.06;94639.66;5149956;27;20662;-79
2023/03/14 06:27:23;;;;;;;18.92;11.50;;;;;;;11.77;39.55;94646.66;5139549;27;20242;-80
2023/03/14 06:29:51;;;;;;;21.38;11.68;;;;;;;12.22;39.48;94648.59;5137752;27;20260;-79
2023/03/14 06:32:18;;;;;;;23.33;11.70;;;;;;;12.12;40.01;94649.81;5150108;27;20680;-79
2023/03/14 06:34:45;;;;;;;17.88;11.27;;;;;;;11.85;39.34;94656.66;5135636;27;20196;-78
2023/03/14 06:37:11;;;;;;;20.67;11.45;;;;;;;11.64;40.35;94658.56;5150282;27;20264;-78
2023/03/14 06:39:38;;;;;;;19.23;11.13;;;;;;;12.63;38.91;94647.59;5131939;27;20224;-79
2023/03/14 06:42:06;;;;;;;20.27;9.98;;;;;;;13.15;38.11;94639.53;5129585;28;20319;-79
2023/03/14 06:44:32;;;;;;;19.98;9.90;;;;;;;14.20;36.25;94630.06;5142834;27;20200;-79
2023/03/14 06:47:01;;;;;;;16.88;9.52;;;;;;;14.53;35.51;94624.28;5140715;27;20209;-79
2023/03/14 06:49:27;;;;;;;21.13;9.68;;;;;;;14.69;34.65;94629.72;5133600;27;20197;-78
2023/03/14 06:51:54;;;;;;;14.23;9.63;;;;;;;14.84;34.90;94615.28;5147810;27;20248;-78
2023/03/14 06:54:21;;;;;;;22.45;10.63;;;;;;;14.56;35.44;94614.59;5137054;27;20196;-78
2023/03/14 06:56:50;;;;;;;13.30;8.35;;;;;;;13.55;35.68;94606.88;5146987;27;20200;-80
2023/03/14 06:59:17;;;;;;;15.77;10.25;;;;;;;12.90;37.31;94605.34;5148699;27;20203;-77
2023/03/14 07:01:47;;;;;;;18.38;9.05;;;;;;;13.29;37.16;94610.03;5145581;27;20242;-79
2023/03/14 07:04:15;;;;;;;11.05;6.60;;;;;;;13.10;37.02;94599.75;5139855;27;20570;-79
2023/03/14 07:06:44;;;;;;;10.63;4.20;;;;;;;12.01;38.59;94608.75;5140410;27;20541;-79
2023/03/14 07:09:11;;;;;;;7.45;4.45;;;;;;;10.74;40.81;94613.03;5147119;27;20238;-79
2023/03/14 07:11:38;;;;;;;9.40;4.00;;;;;;;9.67;43.04;94621.41;5132950;27;20233;-79
2023/03/14 07:14:05;;;;;;;7.55;5.13;;;;;;;8.80;45.07;94619.84;5133227;27;20208;-80
2023/03/14 07:16:32;;;;;;;9.00;5.80;;;;;;;9.85;44.49;94616.72;5132871;27;20273;-80
2023/03/14 07:18:59;;;;;;;6.70;3.90;;;;;;;10.11;43.75;94612.06;5145985;27;20241;-78
2023/03/14 07:21:28;;;;;;;9.15;4.70;;;;;;;10.11;43.33;94616.66;5143853;27;20565;-77
2023/03/14 07:23:55;;;;;;;6.50;3.15;;;;;;;9.27;44.77;94618.94;5153278;27;20204;-76
2023/03/14 07:26:21;;;;;;;5.38;3.72;;;;;;;9.20;45.14;94624.00;5139138;27;20266;-75
2023/03/14 07:28:48;;;;;;;5.82;4.35;;;;;;;9.23;45.49;94623.38;5148781;27;20249;-74
2023/03/14 07:31:15;;;;;;;6.75;3.70;;;;;;;9.18;45.09;94610.00;5152493;27;20212;-75
2023/03/14 07:33:42;;;;;;;6.30;3.42;;;;;;;8.86;45.26;94619.41;5152758;27;20208;-77
2023/03/14 07:36:09;;;;;;;3.47;1.58;;;;;;;7.46;47.86;94614.91;5140057;27;20208;-75
2023/03/14 07:38:38;;;;;;;6.70;3.10;;;;;;;7.57;48.03;94613.53;5153018;27;20305;-76
2023/03/14 07:41:06;;;;;;;3.20;2.22;;;;;;;7.96;47.03;94606.59;5152499;27;20216;-76
2023/03/14 07:43:33;;;;;;;7.18;4.28;;;;;;;7.94;48.12;94598.00;5152768;27;20224;-77
2023/03/14 07:46:00;;;;;;;7.82;3.88;;;;;;;8.21;46.13;94603.19;5138745;27;20237;-76
2023/03/14 07:48:27;;;;;;;10.45;4.43;;;;;;;7.59;47.92;94605.94;5152333;27;20197;-77
2023/03/14 07:50:55;;;;;;;10.90;4.25;;;;;;;8.12;47.19;94596.97;5138314;27;20679;-75
2023/03/14 07:53:23;;;;;;;7.00;3.60;;;;;;;7.99;46.95;94595.19;5141597;27;20671;-77
2023/03/14 07:55:55;;;;;;;4.18;2.40;;;;;;;7.55;48.14;94591.50;5149080;27;20204;-77
2023/03/14 07:58:25;;;;;;;5.30;2.97;;;;;;;7.94;47.82;94595.31;5141553;27;20229;-77
2023/03/14 08:00:52;;;;;;;9.07;3.65;;;;;;;7.85;48.40;94595.28;5131021;27;20288;-77
2023/03/14 08:03:20;;;;;;;18.05;4.25;;;;;;;7.72;47.63;94590.78;5150428;27;20236;-78
2023/03/14 08:05:49;;;;;;;6.78;4.00;;;;;;;7.73;47.76;94593.19;5151960;27;20252;-79
2023/03/14 08:08:15;;;;;;;11.38;4.60;;;;;;;8.44;47.34;94585.84;5152569;27;20250;-78
2023/03/14 08:10:42;;;;;;;7.22;3.97;;;;;;;8.33;46.61;94587.25;5138820;27;20204;-78
2023/03/14 08:13:11;;;;;;;9.77;4.95;;;;;;;8.46;46.86;94589.00;5139840;27;20843;-79
2023/03/14 08:15:38;;;;;;;8.75;5.00;;;;;;;8.57;46.21;94594.09;5145577;27;20209;-79
2023/03/14 08:18:05;;;;;;;11.80;6.95;;;;;;;8.52;45.66;94586.94;5145471;27;20228;-79
2023/03/14 08:20:32;;;;;;;10.00;5.07;;;;;;;8.85;44.89;94595.41;5131034;27;20257;-77
2023/03/14 08:23:00;;;;;;;5.47;3.08;;;;;;;8.87;45.24;94587.78;5145591;27;20261;-76
2023/03/14 08:25:28;;;;;;;6.63;3.95;;;;;;;9.16;43.69;94589.81;5151853;27;20216;-77
2023/03/14 08:27:55;;;;;;;8.82;5.10;;;;;;;9.79;43.15;94580.97;5151323;27;20245;-77
2023/03/14 08:30:24;;;;;;;9.70;4.50;;;;;;;9.58;42.72;94577.34;5148963;27;20256;-78
2023/03/14 08:32:50;;;;;;;10.35;6.68;;;;;;;9.59;43.06;94576.22;5151375;27;20196;-78
2023/03/14 08:35:17;;;;;;;14.88;7.20;;;;;;;9.24;43.66;94570.91;5151755;27;20200;-77
2023/03/14 08:37:44;;;;;;;15.75;6.78;;;;;;;9.72;43.33;94564.41;5150886;27;20229;-78
2023/03/14 08:40:12;;;;;;;9.18;5.35;;;;;;;9.41;43.37;94566.59;5151652;27;20269;-76
2023/03/14 08:42:39;;;;;;;11.10;5.82;;;;;;;9.43;44.15;94567.06;5148905;27;20224;-77
2023/03/14 08:45:08;;;;;;;13.05;7.32;;;;;;;9.12;44.69;94562.66;5140280;27;20192;-75
2023/03/14 08:47:36;;;;;;;19.05;9.40;;;;;;;9.39;44.95;94560.72;5137710;27;20196;-76
2023/03/14 08:50:03;;;;;;;16.55;8.77;;;;;;;9.76;45.29;94553.75;5141218;27;20209;-77
2023/03/14 08:52:31;;;;;;;11.80;6.68;;;;;;;9.58;42.79;94553.00;5144248;27;20204;-76
2023/03/14 08:54:57;;;;;;;16.58;5.55;;;;;;;9.62;41.89;94538.53;5141168;27;20230;-77
2023/03/14 08:57:27;;;;;;;10.80;5.55;;;;;;;10.22;41.53;94534.00;5137715;27;20196;-77
2023/03/14 08:59:54;;;;;;;8.07;4.57;;;;;;;10.52;41.25;94526.66;5141848;27;20257;-78
2023/03/14 09:02:21;;;;;;;14.02;5.07;;;;;;;10.52;40.48;94524.72;5145961;27;20315;-78
2023/03/14 09:04:50;;;;;;;8.90;5.50;;;;;;;10.49;40.70;94519.19;5142309;27;20204;-79
2023/03/14 09:07:17;;;;;;;11.32;5.57;;;;;;;11.17;41.83;94515.13;5138736;27;20724;-76
2023/03/14 09:09:44;;;;;;;9.73;4.78;;;;;;;11.66;38.51;94502.44;5152417;27;20655;-77
2023/03/14 09:12:11;;;;;;;18.73;9.70;;;;;;;11.17;40.14;94509.69;5136087;27;20273;-77
2023/03/14 09:14:38;;;;;;;15.00;9.05;;;;;;;11.17;40.51;94498.84;5138779;27;20641;-79
2023/03/14 09:17:05;;;;;;;13.90;6.57;;;;;;;11.22;40.20;94485.06;5148852;27;20236;-77
2023/03/14 09:19:32;;;;;;;10.70;6.18;;;;;;;11.02;40.79;94486.72;5151204;27;20196;-78
2023/03/14 09:22:00;;;;;;;12.18;6.40;;;;;;;9.93;40.91;94484.16;5145267;27;20184;-77
2023/03/14 09:24:27;;;;;;;12.57;6.75;;;;;;;10.53;40.65;94479.47;5130257;27;20353;-77
2023/03/14 09:26:53;;;;;;;10.10;5.70;;;;;;;10.65;39.99;94482.25;5149788;27;20204;-77
2023/03/14 09:29:20;;;;;;;9.30;6.18;;;;;;;10.37;40.30;94471.16;5150500;27;20204;-77
2023/03/14 09:31:47;;;;;;;9.20;5.95;;;;;;;10.30;40.58;94470.88;5131501;27;20256;-77
2023/03/14 09:34:13;;;;;;;9.45;5.50;;;;;;;10.43;39.85;94459.00;5142643;27;20650;-77
2023/03/14 09:36:40;;;;;;;13.63;5.45;;;;;;;10.59;41.18;94467.31;5144411;27;20683;-78
2023/03/14 09:39:08;;;;;;;9.52;4.93;;;;;;;10.93;40.61;94458.88;5142344;27;20220;-79
2023/03/14 09:41:38;;;;;;;7.80;4.38;;;;;;;10.54;39.71;94449.34;5135815;27;20244;-79
2023/03/14 09:44:09;;;;;;;7.45;3.20;;;;;;;10.75;39.76;94445.84;5137052;27;20277;-76
2023/03/14 09:46:39;;;;;;;7.75;4.60;;;;;;;11.16;38.88;94437.63;5130124;27;20193;-77
2023/03/14 09:49:13;;;;;;;11.13;3.63;;;;;;;10.95;38.62;94432.25;5143686;27;20323;-75
2023/03/14 09:51:42;;;;;;;12.13;5.20;;;;;;;10.89;39.00;94441.72;5138525;27;20198;-77
2023/03/14 09:54:24;;;;;;;12.82;6.93;;;;;;;10.77;39.52;94425.44;5150263;27;20237;-77
2023/03/14 09:56:52;;;;;;;11.45;7.13;;;;;;;11.10;39.78;94422.69;5139167;27;20197;-79
2023/03/14 09:59:19;;;;;;;11.15;5.20;;;;;;;11.55;38.67;94416.41;5134437;27;20200;-79
2023/03/14 10:01:46;;;;;;;7.68;4.47;;;;;;;11.46;38.56;94410.31;5138415;27;20200;-79
2023/03/14 10:04:16;;;;;;;5.43;3.58;;;;;;;11.78;38.04;94406.72;5148242;27;20633;-77
2023/03/14 10:06:43;;;;;;;18.20;4.93;;;;;;;11.67;38.05;94395.50;5137992;27;20204;-79
2023/03/14 10:09:18;;;;;;;9.93;6.03;;;;;;;12.31;37.34;94399.38;5149473;27;20197;-79
2023/03/14 10:11:45;;;;;;;7.95;5.00;;;;;;;11.73;37.50;94402.31;5150155;27;20212;-77
2023/03/14 10:14:13;;;;;;;7.65;4.05;;;;;;;11.84;38.46;94397.22;5136627;27;20246;-77
2023/03/14 10:16:45;;;;;;;11.57;5.05;;;;;;;12.42;37.25;94389.66;5136168;27;20563;-76
2023/03/14 10:19:13;;;;;;;10.00;4.75;;;;;;;12.67;37.99;94391.13;5141114;27;20189;-77
2023/03/14 10:21:42;;;;;;;17.92;7.65;;;;;;;13.31;37.24;94357.47;5129046;28;20254;-77
2023/03/14 10:24:22;;;;;;;8.80;4.32;;;;;;;12.57;37.21;94363.66;5143361;27;20235;-78
2023/03/14 10:26:51;;;;;;;5.68;3.95;;;;;;;12.22;38.67;94358.00;5157639;27;20196;-76
2023/03/14 10:29:17;;;;;;;11.80;5.10;;;;;;;12.37;38.16;94349.13;5152469;27;20304;-77
2023/03/14 10:31:51;;;;;;;8.85;4.95;;;;;;;12.67;38.01;94341.44;5136881;27;20200;-77
2023/03/14 10:34:23;;;;;;;10.57;7.07;;;;;;;12.73;37.75;94340.81;5150079;27;20199;-77
2023/03/14 10:36:54;;;;;;;10.68;6.70;;;;;;;12.99;37.68;94325.94;5136560;27;20185;-77
2023/03/14 10:39:41;;;;;;;11.40;7.20;;;;;;;12.62;37.70;94328.88;5137345;27;20231;-79
2023/03/14 10:42:15;;;;;;;12.13;6.05;;;;;;;12.81;38.06;94311.91;5156654;27;20196;-79
2023/03/14 10:44:42;;;;;;;12.88;6.30;;;;;;;13.05;38.12;94302.78;5142682;27;20219;-77
2023/03/14 10:47:19;;;;;;;12.45;6.07;;;;;;;13.14;38.05;94304.22;5143957;27;20663;-78
2023/03/14 10:49:46;;;;;;;10.60;5.82;;;;;;;13.30;38.01;94292.53;5143348;27;20574;-77
2023/03/14 10:52:22;;;;;;;8.68;5.35;;;;;;;12.97;38.29;94292.88;5143020;27;20220;-80
2023/03/14 10:54:55;;;;;;;10.43;5.70;;;;;;;12.69;39.01;94284.81;5147499;27;20639;-77
2023/03/14 10:57:22;;;;;;;11.00;5.10;;;;;;;13.28;38.89;94273.84;5152604;27;20200;-78
2023/03/14 10:59:49;;;;;;;8.15;5.30;;;;;;;13.40;38.67;94268.31;5146916;27;20196;-76
2023/03/14 11:02:35;;;;;;;10.10;3.40;;;;;;;13.28;38.99;94257.53;5139104;27;20205;-77
2023/03/14 11:05:15;;;;;;;4.72;2.20;;;;;;;13.17;39.30;94261.94;5155221;27;20200;-79
2023/03/14 11:07:43;;;;;;;5.38;2.95;;;;;;;12.95;39.80;94254.38;5148391;27;20197;-76
2023/03/14 11:10:20;;;;;;;4.88;3.20;;;;;;;12.62;40.35;94257.44;5149340;27;20265;-76
2023/03/14 11:13:07;;;;;;;6.13;4.20;;;;;;;12.93;40.50;94248.50;5144890;27;20196;-77
2023/03/14 11:15:37;;;;;;;7.10;3.85;;;;;;;13.23;39.24;94241.50;5139899;27;20212;-79
2023/03/14 11:18:32;;;;;;;3.13;2.50;;;;;;;13.24;39.23;94234.13;5143225;27;20840;-76
2023/03/14 11:21:03;;;;;;;4.75;2.38;;;;;;;13.28;39.13;94218.66;5138605;27;20287;-77
2023/03/14 11:23:39;;;;;;;5.45;4.00;;;;;;;13.28;38.86;94208.56;5142196;27;20227;-78
2023/03/14 11:26:20;;;;;;;6.15;3.78;;;;;;;13.46;38.28;94193.44;5143072;27;20185;-78
2023/03/14 11:28:50;;;;;;;9.73;3.50;;;;;;;14.13;38.01;94190.50;5139479;27;20181;-78
2023/03/14 11:31:25;;;;;;;6.15;2.80;;;;;;;14.07;37.18;94179.13;5149505;27;20195;-77
2023/03/14 11:33:57;;;;;;;4.97;2.95;;;;;;;13.89;37.53;94180.69;5145911;27;20621;-78
2023/03/14 11:36:31;;;;;;;4.47;3.00;;;;;;;13.91;37.59;94170.25;5138136;27;20204;-77